ウルムチ の空港の天気 - METARとTAF

ウルムチ地窩堡国際空港 ( ZWWW / URC ) - 中国 新疆ウイグル自治区ウルムチ市
飛行場実況気象(Metar)
観測時間08/05 14:30 CST (08/05 06:30 UTC)
風向・風速北北西 3m/s
視程10km以上
天気現象
なし
気温32℃
湿度26%
気圧1008hPa
METARZWWW 050630Z 34003MPS 280V030 CAVOK 32/10 Q1008 NOSIG
過去の天気等 Google飛行場航空写真 Wunderground天気予報

過去48時間のMETAR

飛行場予報(TAF)
発表時間: 8/05 11:01 CST (8/05 03:01 UTC)
予報対象時間: 5日14時 CST ~ 6日14時 CST
風向・風速北 4m/s
視程10km以上
なし
5日21時 CST ~ 5日22時 CST に徐々に
風向・風速南 4m/s
6日10時 CST ~ 6日11時 CST に徐々に
風向・風速北 4m/s
TAF ZWWW 050301Z 0506/0606 36004MPS CAVOK TX34/0509Z TN24/0523Z
BECMG 0513/0514 18004MPS
BECMG 0602/0603 36004MPS